»·PEaware :: N323CB KAPA-KRKS

N323CB :: KAPA-KRKS

FLIGHT INFORMATION

Flight Status: Arrived
Operator: Privately registered:
United States
More flights under this callsign
Pilot: Chris B. (7910)
Aircraft: Unknown
(P28U)
More flights by this aircraft type
Origin: KAPA Centennial
United States
Destination: KRKS Rock Springs-Sweetwater
United States
More flights between these airports :: More routes between these airports
Route: +YELLO1 LAR V4 OCS
File this flight plan on PilotEdge
Remarks:
Altitude:
(Current/Filed)
14,000ft
Speed:
(Current/Filed)
150kts
Departed: 24-Feb-18 12:51 PM
Arrived: 24-Feb-18 03:12 PM
Distance/Time
Traveled:
227nm/2:21
Distance/Time
To Go:
Arrived

Flight Plot

Page will automatically refresh every two minutes.

Flight plan parsing failed; only flown route is shown


Map Options




Map Legend


Flown Route
Filed Route
Departure Airport
Arrival Airport
Navaid (VOR, NDB)
Fix

Horizontal Profiles

Position Reports

Time Latitude Longitude Heading Altitude Ground
Speed
24-Feb-18 12:37 39.579537 -104.848787 89 5803ft 0kts
24-Feb-18 12:38 39.579537 -104.848787 89 5803ft 0kts
24-Feb-18 12:39 39.579537 -104.848787 89 5803ft 0kts
24-Feb-18 12:40 39.579537 -104.848787 89 5803ft 0kts
24-Feb-18 12:41 39.579537 -104.848787 89 5803ft 0kts
24-Feb-18 12:42 39.579537 -104.848787 89 5803ft 0kts
24-Feb-18 12:43 39.579537 -104.848787 89 5803ft 0kts
24-Feb-18 12:44 39.579277 -104.848968 231 5804ft 3kts
24-Feb-18 12:45 39.578187 -104.849792 180 5809ft 14kts
24-Feb-18 12:46 39.574689 -104.849616 176 5816ft 8kts
24-Feb-18 12:47 39.573702 -104.848319 117 5815ft 11kts
24-Feb-18 12:48 39.572297 -104.843708 110 5807ft 13kts
24-Feb-18 12:49 39.571033 -104.839404 110 5802ft 13kts
24-Feb-18 12:50 39.569994 -104.835444 107 5791ft 9kts
24-Feb-18 12:51 39.570372 -104.836718 293 5794ft 7kts
24-Feb-18 12:52 39.570384 -104.837319 220 5797ft 0kts
24-Feb-18 12:53 39.570385 -104.837319 220 5797ft 0kts
24-Feb-18 12:54 39.570385 -104.837319 220 5797ft 0kts
24-Feb-18 12:55 39.570385 -104.837319 220 5797ft 0kts
24-Feb-18 12:56 39.570385 -104.837319 220 5797ft 0kts
24-Feb-18 12:57 39.569613 -104.837282 312 5798ft 1kts
24-Feb-18 12:58 39.574473 -104.854082 294 6439ft 72kts
24-Feb-18 12:59 39.584479 -104.882572 295 7576ft 97kts
24-Feb-18 13:00 39.597751 -104.918660 295 7999ft 125kts
24-Feb-18 13:01 39.623838 -104.942592 3 7977ft 140kts
24-Feb-18 13:02 39.659207 -104.947153 333 8012ft 133kts
24-Feb-18 13:03 39.692843 -104.955308 340 8624ft 128kts
24-Feb-18 13:04 39.726666 -104.968374 336 9491ft 130kts
24-Feb-18 13:05 39.758235 -104.981396 333 10597ft 114kts
24-Feb-18 13:06 39.785388 -104.993393 331 11590ft 108kts
24-Feb-18 13:07 39.812818 -105.005824 333 12579ft 105kts
24-Feb-18 13:08 39.838747 -105.017527 333 13480ft 105kts
24-Feb-18 13:09 39.860151 -105.027114 330 14009ft 117kts
24-Feb-18 13:10 39.882744 -105.037384 332 14115ft 134kts
24-Feb-18 13:11 39.907080 -105.048289 333 14092ft 141kts
24-Feb-18 13:12 39.932028 -105.059500 332 14126ft 136kts
24-Feb-18 13:13 39.956960 -105.070810 333 14027ft 143kts
24-Feb-18 13:14 39.993839 -105.087502 332 14018ft 139kts
24-Feb-18 13:15 40.029511 -105.103698 332 14038ft 132kts
24-Feb-18 13:16 40.063943 -105.119396 332 14028ft 131kts
24-Feb-18 13:17 40.098486 -105.135155 332 14085ft 132kts
24-Feb-18 13:18 40.132879 -105.150844 332 14099ft 135kts
24-Feb-18 13:19 40.168290 -105.166995 332 14090ft 136kts
24-Feb-18 13:20 40.203678 -105.183158 332 14085ft 136kts
24-Feb-18 13:21 40.239270 -105.199439 332 14077ft 136kts
24-Feb-18 13:22 40.274176 -105.215386 331 14081ft 134kts
24-Feb-18 13:23 40.308747 -105.231258 331 14060ft 131kts
24-Feb-18 13:24 40.343013 -105.246997 331 14053ft 131kts
24-Feb-18 13:25 40.376878 -105.262244 322 14076ft 125kts
24-Feb-18 13:26 40.409720 -105.277582 322 13916ft 126kts
24-Feb-18 13:27 40.441319 -105.292190 322 13979ft 120kts
24-Feb-18 13:28 40.472621 -105.306674 322 14036ft 119kts
24-Feb-18 13:29 40.503939 -105.321153 322 14091ft 119kts
24-Feb-18 13:30 40.535148 -105.335586 322 14111ft 121kts
24-Feb-18 13:31 40.566897 -105.350267 322 14116ft 122kts
24-Feb-18 13:32 40.598827 -105.365035 322 14110ft 122kts
24-Feb-18 13:33 40.630700 -105.379799 322 14103ft 122kts
24-Feb-18 13:34 40.662493 -105.394544 322 14094ft 122kts
24-Feb-18 13:35 40.694296 -105.409310 322 14083ft 122kts
24-Feb-18 13:36 40.726220 -105.424147 322 14071ft 122kts
24-Feb-18 13:37 40.757997 -105.438986 324 14073ft 120kts
24-Feb-18 13:38 40.789078 -105.453419 324 14092ft 118kts
24-Feb-18 13:39 40.820055 -105.467841 324 14077ft 118kts
24-Feb-18 13:40 40.850494 -105.482043 324 14034ft 118kts
24-Feb-18 13:41 40.881054 -105.496320 324 14025ft 117kts
24-Feb-18 13:42 40.911615 -105.510614 324 14011ft 117kts
24-Feb-18 13:43 40.942006 -105.524842 324 14025ft 116kts
24-Feb-18 13:44 40.972463 -105.539119 324 14025ft 116kts
24-Feb-18 13:45 41.002894 -105.553392 324 14024ft 116kts
24-Feb-18 13:46 41.033217 -105.567628 324 14022ft 116kts
24-Feb-18 13:47 41.063649 -105.581929 324 14018ft 116kts
24-Feb-18 13:48 41.093999 -105.596204 324 14012ft 116kts
24-Feb-18 13:49 41.123081 -105.609897 324 14024ft 116kts
24-Feb-18 13:50 41.153337 -105.624154 324 14042ft 116kts
24-Feb-18 13:51 41.183725 -105.638489 324 14057ft 116kts
24-Feb-18 13:52 41.213594 -105.652601 323 14081ft 116kts
24-Feb-18 13:53 41.244478 -105.667235 324 14054ft 120kts
24-Feb-18 13:54 41.276530 -105.682467 327 14022ft 124kts
24-Feb-18 13:55 41.309301 -105.697904 327 14034ft 125kts
24-Feb-18 13:56 41.339259 -105.717851 295 14025ft 112kts
24-Feb-18 13:57 41.351472 -105.755790 289 14056ft 112kts
24-Feb-18 13:58 41.361749 -105.795524 287 14014ft 115kts
24-Feb-18 13:59 41.371486 -105.836052 287 13956ft 115kts
24-Feb-18 14:00 41.380886 -105.876236 287 13975ft 112kts
24-Feb-18 14:01 41.390143 -105.916109 287 13967ft 113kts
24-Feb-18 14:02 41.399378 -105.956074 286 13980ft 112kts
24-Feb-18 14:03 41.408581 -105.995955 287 13972ft 113kts
24-Feb-18 14:04 41.417750 -106.035806 286 13978ft 113kts
24-Feb-18 14:05 41.426912 -106.075673 286 13974ft 113kts
24-Feb-18 14:06 41.436101 -106.115721 286 13970ft 113kts
24-Feb-18 14:07 41.444725 -106.153315 286 13964ft 113kts
24-Feb-18 14:08 41.453518 -106.191918 287 13981ft 112kts
24-Feb-18 14:09 41.462591 -106.231683 287 14004ft 112kts
24-Feb-18 14:10 41.471685 -106.271380 285 14019ft 113kts
24-Feb-18 14:11 41.480712 -106.311228 285 14031ft 113kts
24-Feb-18 14:12 41.489469 -106.349869 285 14055ft 113kts
24-Feb-18 14:13 41.498607 -106.390180 285 14059ft 113kts
24-Feb-18 14:14 41.507676 -106.430320 285 14059ft 114kts
24-Feb-18 14:15 41.516818 -106.470794 285 14021ft 115kts
24-Feb-18 14:16 41.526008 -106.511585 285 13981ft 115kts
24-Feb-18 14:17 41.535063 -106.551830 285 13935ft 115kts
24-Feb-18 14:18 41.543602 -106.589934 285 14095ft 108kts
24-Feb-18 14:19 41.551997 -106.627413 285 14069ft 115kts
24-Feb-18 14:20 41.560594 -106.665776 285 13941ft 118kts
24-Feb-18 14:21 41.569808 -106.707009 285 14010ft 114kts
24-Feb-18 14:22 41.578861 -106.747631 285 14003ft 117kts
24-Feb-18 14:23 41.588169 -106.789536 285 14026ft 120kts
24-Feb-18 14:24 41.597556 -106.831787 285 14067ft 122kts
24-Feb-18 14:25 41.605692 -106.868451 285 14006ft 124kts
24-Feb-18 14:26 41.616957 -106.919374 285 14011ft 120kts
24-Feb-18 14:27 41.626277 -106.961619 285 14006ft 122kts
24-Feb-18 14:28 41.635696 -107.004356 285 14013ft 119kts
24-Feb-18 14:29 41.645062 -107.046947 286 14003ft 117kts
24-Feb-18 14:30 41.652085 -107.078948 286 14004ft 119kts
24-Feb-18 14:31 41.660644 -107.118031 285 13997ft 120kts
24-Feb-18 14:32 41.670970 -107.165223 285 13999ft 119kts
24-Feb-18 14:33 41.678525 -107.199839 285 14000ft 119kts
24-Feb-18 14:34 41.687690 -107.241891 285 13994ft 119kts
24-Feb-18 14:35 41.696984 -107.284508 284 13963ft 121kts
24-Feb-18 14:36 41.706250 -107.327281 284 13960ft 121kts
24-Feb-18 14:37 41.715576 -107.370325 284 13944ft 121kts
24-Feb-18 14:38 41.724810 -107.413078 285 13922ft 121kts
24-Feb-18 14:39 41.734002 -107.455675 284 13932ft 120kts
24-Feb-18 14:40 41.743134 -107.498114 284 13951ft 120kts
24-Feb-18 14:41 41.752278 -107.540784 285 13930ft 122kts
24-Feb-18 14:42 41.759772 -107.584773 267 13995ft 125kts
24-Feb-18 14:43 41.755357 -107.630758 265 14009ft 126kts
24-Feb-18 14:44 41.750487 -107.676715 265 13971ft 131kts
24-Feb-18 14:45 41.745386 -107.723189 265 13983ft 123kts
24-Feb-18 14:46 41.740232 -107.769893 262 13862ft 130kts
24-Feb-18 14:47 41.734918 -107.817206 264 13897ft 129kts
24-Feb-18 14:48 41.729647 -107.864309 263 13946ft 128kts
24-Feb-18 14:49 41.725143 -107.910325 273 14050ft 127kts
24-Feb-18 14:50 41.727567 -107.954460 256 13960ft 130kts
24-Feb-18 14:51 41.715286 -107.998901 255 13898ft 128kts
24-Feb-18 14:52 41.704055 -108.043173 256 13776ft 134kts
24-Feb-18 14:53 41.693289 -108.092462 258 13312ft 143kts
24-Feb-18 14:54 41.684658 -108.143310 261 12696ft 141kts
24-Feb-18 14:55 41.678699 -108.191671 264 12230ft 134kts
24-Feb-18 14:56 41.674766 -108.240354 266 11760ft 132kts
24-Feb-18 14:57 41.671219 -108.288912 263 11237ft 133kts
24-Feb-18 14:58 41.658294 -108.335156 248 10671ft 136kts
24-Feb-18 14:59 41.641351 -108.379651 247 10119ft 135kts
24-Feb-18 15:00 41.624454 -108.422102 247 9994ft 126kts
24-Feb-18 15:01 41.614859 -108.464964 262 10001ft 118kts
24-Feb-18 15:02 41.606839 -108.508142 258 9952ft 122kts
24-Feb-18 15:03 41.597729 -108.551043 258 9953ft 121kts
24-Feb-18 15:04 41.588558 -108.593951 258 9939ft 119kts
24-Feb-18 15:05 41.580506 -108.636125 260 10017ft 118kts
24-Feb-18 15:06 41.571178 -108.677581 255 9959ft 122kts
24-Feb-18 15:07 41.562139 -108.719369 257 9962ft 120kts
24-Feb-18 15:08 41.559224 -108.733957 258 9987ft 119kts
24-Feb-18 15:10 41.553030 -108.824564 275 9992ft 80kts
24-Feb-18 15:11 41.556299 -108.851551 282 9652ft 75kts
24-Feb-18 15:12 41.561279 -108.877850 278 9162ft 73kts
24-Feb-18 15:13 41.565242 -108.905133 282 8812ft 76kts
24-Feb-18 15:14 41.570971 -108.930911 277 8397ft 74kts
24-Feb-18 15:15 41.575636 -108.957424 280 8025ft 75kts
24-Feb-18 15:16 41.580523 -108.985050 280 7681ft 73kts
24-Feb-18 15:17 41.584833 -109.009532 280 7352ft 68kts
24-Feb-18 15:18 41.588904 -109.032394 279 6986ft 64kts
24-Feb-18 15:19 41.592273 -109.051567 283 6754ft 19kts
24-Feb-18 15:20 41.593615 -109.055351 10 6754ft 2kts
24-Feb-18 15:21 41.594394 -109.057224 284 6751ft 6kts
24-Feb-18 15:22 41.594997 -109.060624 283 6747ft 11kts
24-Feb-18 15:23 41.595663 -109.064426 282 6743ft 10kts
24-Feb-18 15:24 41.597033 -109.067351 33 6739ft 14kts
24-Feb-18 15:25 41.598714 -109.064436 45 6738ft 6kts
24-Feb-18 15:26 41.599211 -109.064067 314 6737ft 0kts
24-Feb-18 15:27 41.599211 -109.064067 314 6737ft 0kts
24-Feb-18 15:28 41.590788 -109.043144 280 6815ft 60kts
24-Feb-18 15:29 41.592043 -109.050091 278 6753ft 35kts
24-Feb-18 15:30 41.592132 -109.050715 281 6752ft 29kts
24-Feb-18 15:31 41.599211 -109.064067 314 6737ft 0kts

Navigation Log

Ident Type
Flight plan parsing failed, navigation log unavailable